createdAt,value
2019-05-26T00:02:38.270Z,12.86
2019-05-26T00:07:44.587Z,12.65
2019-05-26T00:12:50.975Z,12.73
2019-05-26T00:17:57.007Z,12.56
2019-05-26T00:23:03.440Z,12.59
2019-05-26T00:28:09.883Z,12.60
2019-05-26T00:33:15.984Z,12.53
2019-05-26T00:38:22.283Z,12.52
2019-05-26T00:43:28.461Z,12.43
2019-05-26T00:48:34.619Z,12.43
2019-05-26T00:53:41.188Z,12.30
2019-05-26T00:58:48.275Z,12.38
2019-05-26T01:03:54.442Z,12.21
2019-05-26T01:09:01.495Z,12.16
2019-05-26T01:14:08.022Z,11.99
2019-05-26T01:19:14.579Z,12.03
2019-05-26T01:24:20.747Z,11.95
2019-05-26T01:29:27.544Z,11.82
2019-05-26T01:34:33.765Z,11.65
2019-05-26T01:39:40.519Z,11.43
2019-05-26T01:44:46.622Z,11.29
2019-05-26T01:49:53.437Z,11.10
2019-05-26T01:54:59.475Z,11.18
2019-05-26T02:00:06.384Z,11.40
2019-05-26T02:05:13.224Z,10.79
2019-05-26T02:10:19.932Z,10.48
2019-05-26T02:15:26.741Z,10.69
2019-05-26T02:20:32.786Z,10.76
2019-05-26T02:25:39.588Z,10.92
2019-05-26T02:30:46.164Z,10.92
2019-05-26T02:35:52.698Z,10.71
2019-05-26T02:40:59.573Z,10.66
2019-05-26T02:46:05.765Z,10.75
2019-05-26T02:51:12.129Z,10.63
2019-05-26T02:56:18.857Z,10.32
2019-05-26T03:01:25.715Z,10.50
2019-05-26T03:06:34.394Z,10.57
2019-05-26T03:11:43.692Z,10.53
2019-05-26T03:16:51.871Z,10.47
2019-05-26T03:22:00.435Z,10.22
2019-05-26T03:27:07.148Z,10.24
2019-05-26T03:32:14.007Z,10.49
2019-05-26T03:37:20.429Z,10.37
2019-05-26T03:42:26.815Z,10.34
2019-05-26T03:47:33.946Z,10.29
2019-05-26T03:52:40.591Z,10.35
2019-05-26T03:57:47.035Z,10.25
2019-05-26T04:02:53.595Z,9.91
2019-05-26T04:08:04.358Z,9.48
2019-05-26T04:13:08.270Z,9.63
2019-05-26T04:18:17.825Z,9.67
2019-05-26T04:23:27.389Z,9.91
2019-05-26T04:28:34.765Z,10.12
2019-05-26T04:33:41.238Z,10.32
2019-05-26T04:38:47.313Z,10.50
2019-05-26T04:43:53.564Z,10.56
2019-05-26T04:48:59.903Z,10.86
2019-05-26T04:54:06.501Z,11.26
2019-05-26T04:59:12.895Z,11.17
2019-05-26T05:04:19.665Z,11.12
2019-05-26T05:09:26.203Z,11.40
2019-05-26T05:14:32.708Z,11.66
2019-05-26T05:19:38.877Z,11.98
2019-05-26T05:24:45.610Z,11.94
2019-05-26T05:29:52.078Z,12.04
2019-05-26T05:34:58.556Z,12.36
2019-05-26T05:40:05.885Z,12.38
2019-05-26T05:45:12.381Z,12.61
2019-05-26T05:50:18.822Z,12.86
2019-05-26T05:55:25.241Z,12.96
2019-05-26T06:00:31.726Z,13.05
2019-05-26T06:05:37.905Z,13.63
2019-05-26T06:10:44.422Z,13.96
2019-05-26T06:15:51.075Z,13.94
2019-05-26T06:20:57.457Z,14.65
2019-05-26T06:26:03.686Z,14.46
2019-05-26T06:31:10.185Z,14.87
2019-05-26T06:36:16.569Z,15.46
2019-05-26T06:41:32.745Z,15.57
2019-05-26T06:46:31.213Z,15.82
2019-05-26T06:51:38.113Z,16.14
2019-05-26T06:56:44.188Z,15.46
2019-05-26T07:01:50.670Z,16.20
2019-05-26T07:06:57.460Z,16.51
2019-05-26T07:12:03.656Z,16.89
2019-05-26T07:17:10.119Z,16.87
2019-05-26T07:22:16.913Z,16.67
2019-05-26T07:27:23.702Z,17.10
2019-05-26T07:32:30.506Z,16.01
2019-05-26T07:37:36.622Z,16.26
2019-05-26T07:42:43.467Z,17.08
2019-05-26T07:47:50.356Z,17.40
2019-05-26T07:52:56.841Z,17.37
2019-05-26T07:58:03.637Z,17.54
2019-05-26T08:03:10.078Z,17.65
2019-05-26T08:08:16.284Z,17.86
2019-05-26T08:13:23.402Z,17.59
2019-05-26T08:18:30.298Z,18.61
2019-05-26T08:23:37.021Z,18.54
2019-05-26T08:28:43.369Z,18.88
2019-05-26T08:33:49.772Z,19.42
2019-05-26T08:38:56.138Z,19.19
2019-05-26T08:44:02.259Z,19.64
2019-05-26T08:49:08.794Z,20.41
2019-05-26T08:54:14.997Z,20.50
2019-05-26T08:59:21.091Z,20.26
2019-05-26T09:04:28.096Z,19.87
2019-05-26T09:09:34.284Z,20.06
2019-05-26T09:14:40.737Z,20.78
2019-05-26T09:19:47.306Z,21.17
2019-05-26T09:24:54.087Z,21.37
2019-05-26T09:30:00.947Z,21.86
2019-05-26T09:35:07.928Z,21.69
2019-05-26T09:40:14.562Z,21.90
2019-05-26T09:45:21.312Z,22.44
2019-05-26T09:50:27.735Z,22.04
2019-05-26T09:55:34.130Z,20.93
2019-05-26T10:00:40.658Z,22.35
2019-05-26T10:05:47.103Z,23.23
2019-05-26T10:10:54.095Z,22.80
2019-05-26T10:16:00.194Z,21.73
2019-05-26T10:21:06.365Z,21.30
2019-05-26T10:26:12.384Z,23.20
2019-05-26T10:31:18.679Z,23.68
2019-05-26T10:36:24.782Z,24.04
2019-05-26T10:41:31.144Z,23.93
2019-05-26T10:46:37.650Z,23.73
2019-05-26T10:51:44.447Z,23.68
2019-05-26T10:56:51.229Z,22.56
2019-05-26T11:01:57.907Z,22.00
2019-05-26T11:07:04.290Z,23.21
2019-05-26T11:12:10.676Z,22.77
2019-05-26T11:17:17.475Z,23.26
2019-05-26T11:22:23.951Z,23.57
2019-05-26T11:27:30.650Z,22.79
2019-05-26T11:32:37.439Z,23.45
2019-05-26T11:37:43.534Z,24.30
2019-05-26T11:42:51.587Z,23.95
2019-05-26T11:47:58.319Z,24.77
2019-05-26T11:53:04.502Z,23.87
2019-05-26T11:58:10.896Z,23.28
2019-05-26T12:03:16.987Z,24.12
2019-05-26T12:08:23.399Z,24.79
2019-05-26T12:13:29.721Z,25.07
2019-05-26T12:18:38.864Z,25.20
2019-05-26T12:23:45.571Z,24.68
2019-05-26T12:28:52.046Z,24.69
2019-05-26T12:33:58.134Z,24.82
2019-05-26T12:39:05.527Z,24.83
2019-05-26T12:44:12.223Z,24.60
2019-05-26T12:49:18.488Z,25.04
2019-05-26T12:54:24.734Z,24.86
2019-05-26T12:59:30.826Z,24.60
2019-05-26T13:04:36.995Z,25.08
2019-05-26T13:09:43.823Z,24.95
2019-05-26T13:15:05.105Z,24.43
2019-05-26T13:19:58.646Z,25.17
2019-05-26T13:25:05.747Z,25.49
2019-05-26T13:30:13.491Z,23.32
2019-05-26T13:35:20.251Z,23.37
2019-05-26T13:40:29.519Z,24.43
2019-05-26T13:45:35.156Z,24.11
2019-05-26T13:50:42.049Z,24.41
2019-05-26T13:55:48.841Z,24.89
2019-05-26T14:00:55.355Z,24.93
2019-05-26T14:06:02.105Z,25.24
2019-05-26T14:11:08.824Z,25.87
2019-05-26T14:16:15.007Z,25.45
2019-05-26T14:21:21.776Z,25.07
2019-05-26T14:26:28.295Z,24.97
2019-05-26T14:31:34.783Z,25.24
2019-05-26T14:36:41.225Z,24.71
2019-05-26T14:41:48.334Z,24.52
2019-05-26T14:46:54.499Z,23.91
2019-05-26T14:52:01.364Z,23.22
2019-05-26T14:57:08.200Z,23.75
2019-05-26T15:02:14.987Z,24.38
2019-05-26T15:07:21.183Z,24.72
2019-05-26T15:12:27.957Z,24.94
2019-05-26T15:17:34.954Z,24.76
2019-05-26T15:22:41.761Z,24.44
2019-05-26T15:27:48.550Z,23.84
2019-05-26T15:32:54.929Z,23.12
2019-05-26T15:38:01.472Z,23.77
2019-05-26T15:43:07.878Z,24.25
2019-05-26T15:48:14.280Z,24.57
2019-05-26T15:53:20.961Z,24.28
2019-05-26T15:58:28.115Z,23.83
2019-05-26T16:03:34.858Z,23.75
2019-05-26T16:08:40.960Z,23.66
2019-05-26T16:13:47.846Z,23.93
2019-05-26T16:18:54.155Z,23.62
2019-05-26T16:24:00.632Z,24.03
2019-05-26T16:29:07.372Z,23.69
2019-05-26T16:34:13.760Z,23.59
2019-05-26T16:39:34.390Z,23.51
2019-05-26T16:44:28.582Z,23.21
2019-05-26T16:49:35.457Z,23.02
2019-05-26T16:54:41.649Z,22.80
2019-05-26T16:59:47.978Z,23.08
2019-05-26T17:04:54.722Z,22.95
2019-05-26T17:10:01.095Z,22.99
2019-05-26T17:15:08.095Z,22.82
2019-05-26T17:20:16.154Z,22.74
2019-05-26T17:25:22.855Z,22.64
2019-05-26T17:30:29.714Z,22.49
2019-05-26T17:35:35.880Z,22.31
2019-05-26T17:40:42.259Z,22.14
2019-05-26T17:45:49.118Z,21.69
2019-05-26T17:50:55.747Z,21.70
2019-05-26T17:56:02.845Z,21.45
2019-05-26T18:01:09.019Z,21.37
2019-05-26T18:06:15.408Z,21.25
2019-05-26T18:11:21.949Z,21.04
2019-05-26T18:16:28.085Z,20.82
2019-05-26T18:21:34.451Z,20.61
2019-05-26T18:26:41.157Z,19.93
2019-05-26T18:31:47.988Z,19.86
2019-05-26T18:36:54.518Z,19.66
2019-05-26T18:42:01.000Z,19.38
2019-05-26T18:47:07.267Z,19.04
2019-05-26T18:52:13.375Z,18.91
2019-05-26T18:57:20.142Z,18.59
2019-05-26T19:02:26.547Z,18.49
2019-05-26T19:07:32.640Z,18.26
2019-05-26T19:12:38.807Z,17.96
2019-05-26T19:17:45.574Z,17.80
2019-05-26T19:22:53.405Z,17.76
2019-05-26T19:28:00.107Z,17.59
2019-05-26T19:33:06.826Z,17.43
2019-05-26T19:38:13.868Z,17.06
2019-05-26T19:43:20.120Z,16.88
2019-05-26T19:48:35.638Z,16.91
2019-05-26T19:53:34.306Z,16.82
2019-05-26T19:58:40.783Z,16.61
2019-05-26T20:03:47.112Z,16.56
2019-05-26T20:08:54.319Z,16.53
2019-05-26T20:14:00.415Z,16.15
2019-05-26T20:19:06.887Z,15.80
2019-05-26T20:24:13.696Z,15.83
2019-05-26T20:29:19.865Z,15.68
2019-05-26T20:34:25.963Z,15.30
2019-05-26T20:39:32.404Z,15.54
2019-05-26T20:44:38.468Z,15.18
2019-05-26T20:49:46.073Z,15.18
2019-05-26T20:54:52.261Z,15.36
2019-05-26T20:59:58.858Z,15.49
2019-05-26T21:05:05.923Z,15.73
2019-05-26T21:10:12.855Z,15.67
2019-05-26T21:15:20.140Z,15.30
2019-05-26T21:20:26.650Z,15.31
2019-05-26T21:25:33.068Z,15.89
2019-05-26T21:30:39.695Z,15.99
2019-05-26T21:35:46.506Z,15.96
2019-05-26T21:40:53.192Z,15.78
2019-05-26T21:46:00.535Z,15.82
2019-05-26T21:51:06.979Z,15.51
2019-05-26T21:56:13.260Z,15.10
2019-05-26T22:01:20.157Z,14.73
2019-05-26T22:06:26.553Z,14.74
2019-05-26T22:11:33.555Z,14.78
2019-05-26T22:16:39.737Z,14.59
2019-05-26T22:21:45.904Z,14.67
2019-05-26T22:26:52.579Z,14.47
2019-05-26T22:31:59.271Z,14.80
2019-05-26T22:37:05.751Z,14.13
2019-05-26T22:42:12.146Z,13.95
2019-05-26T22:47:18.318Z,13.77
2019-05-26T22:52:25.119Z,13.74
2019-05-26T22:57:32.112Z,13.75
2019-05-26T23:02:38.272Z,13.38
2019-05-26T23:07:45.330Z,13.38
2019-05-26T23:12:51.857Z,13.59
2019-05-26T23:17:58.959Z,13.71
2019-05-26T23:23:05.151Z,13.73
2019-05-26T23:28:12.502Z,13.73
2019-05-26T23:33:18.938Z,13.85
2019-05-26T23:38:25.622Z,13.74
2019-05-26T23:43:32.711Z,13.61
2019-05-26T23:48:39.161Z,13.52
2019-05-26T23:53:45.587Z,13.19
2019-05-26T23:58:52.723Z,13.17
